Stephenville, Texas
Current Conditions -  °F | °C
As of 2:15 AM on Sunday 21 Dec 2014 (Local Time) from KSEP Reporting Station
Overcast Overcast  
Wind Chill: 43°   Ceiling: 1800
Heat Index: 46°   Visibility: 7mi
Dew Point: 42°   Wind: 6mph
Humidity: 87%   Direction: 150°SSE
Pressure: 30.14"   Gusts: NA
Location:  32.22°N, 98.2°W
Report Text: KSEP 210815Z AUTO 15005KT 7SM OVC018 08/06 A3014 RMK AO2 T00780058
Loading
Personal Weather Stations






























Interactive Weather Map New forecast layout! Learn more

10-Day Weather Forecast

Advertisements
Track Severe Weather on mobile